Time;durP1;ratioP1;P1;durP2;ratioP2;P2;SDS_P1;SDS_P2;PMS_P1;PMS_P2;Temp;Humidity;BMP_temperature;BMP_pressure;BME280_temperature;BME280_humidity;BME280_pressure;Samples;Min_cycle;Max_cycle;Signal;HPM_P1;HPM_P2
2020/12/05 00:00:07;;;;;;;40.93;24.03;;;;;;;-0.95;100.00;101060.94;1784248;78;21073;-77
2020/12/05 00:02:37;;;;;;;34.83;20.53;;;;;;;-0.97;100.00;101054.04;1765697;78;21168;-76
2020/12/05 00:05:05;;;;;;;39.33;21.17;;;;;;;-1.00;100.00;101058.56;1768795;78;21396;-77
2020/12/05 00:07:34;;;;;;;48.60;27.93;;;;;;;-0.98;100.00;101056.12;1786202;78;21365;-78
2020/12/05 00:10:03;;;;;;;30.90;18.17;;;;;;;-0.93;100.00;101054.66;1788355;80;21548;-78
2020/12/05 00:12:32;;;;;;;34.87;20.47;;;;;;;-0.93;100.00;101057.59;1794782;78;21100;-78
2020/12/05 00:15:00;;;;;;;44.97;27.00;;;;;;;-0.96;100.00;101048.16;1751540;81;21095;-78
2020/12/05 00:17:31;;;;;;;38.63;22.00;;;;;;;-0.93;100.00;101052.52;1754814;80;21128;-79
2020/12/05 00:20:02;;;;;;;40.40;22.40;;;;;;;-0.92;100.00;101055.11;1784686;79;21108;-77
2020/12/05 00:22:30;;;;;;;42.43;25.73;;;;;;;-0.89;100.00;101056.94;1775010;78;21183;-78
2020/12/05 00:25:00;;;;;;;31.80;18.47;;;;;;;-0.87;100.00;101057.48;1787004;78;21036;-78
2020/12/05 00:27:29;;;;;;;41.77;24.83;;;;;;;-0.83;100.00;101056.83;1790215;78;21143;-77
2020/12/05 00:29:57;;;;;;;58.30;33.93;;;;;;;-0.83;100.00;101068.66;1789326;78;21127;-77
2020/12/05 00:32:28;;;;;;;34.13;22.03;;;;;;;-0.83;100.00;101066.12;1764284;80;21323;-78
2020/12/05 00:34:57;;;;;;;42.23;23.73;;;;;;;-0.88;100.00;101063.38;1758083;80;21295;-77
2020/12/05 00:37:30;;;;;;;47.27;25.57;;;;;;;-0.90;100.00;101062.83;1763220;79;21158;-78
2020/12/05 00:39:58;;;;;;;45.40;26.17;;;;;;;-0.93;100.00;101063.95;1778429;79;21120;-78
2020/12/05 00:42:26;;;;;;;44.17;23.23;;;;;;;-0.92;100.00;101067.81;1795153;79;21171;-78
2020/12/05 00:44:56;;;;;;;49.83;28.15;;;;;;;-0.87;100.00;101061.70;1781236;79;21212;-78
2020/12/05 00:47:28;;;;;;;57.83;31.00;;;;;;;-0.84;100.00;101067.80;1773783;79;21119;-76
2020/12/05 00:49:55;;;;;;;34.90;21.68;;;;;;;-0.83;100.00;101068.66;1785035;79;21163;-78
2020/12/05 00:52:23;;;;;;;55.37;30.60;;;;;;;-0.82;100.00;101062.77;1784251;79;21056;-78
2020/12/05 00:54:51;;;;;;;42.23;25.57;;;;;;;-0.84;100.00;101068.20;1771443;79;21128;-78
2020/12/05 00:57:20;;;;;;;38.77;21.67;;;;;;;-0.88;100.00;101065.92;1787245;79;21758;-78
2020/12/05 00:59:50;;;;;;;45.07;24.50;;;;;;;-0.90;100.00;101067.91;1770957;80;21111;-78
2020/12/05 01:02:23;;;;;;;47.50;25.50;;;;;;;-0.88;100.00;101072.64;1809245;78;21137;-78
2020/12/05 01:04:51;;;;;;;47.20;25.02;;;;;;;-0.95;100.00;101074.02;1759392;79;21096;-79
2020/12/05 01:07:25;;;;;;;48.53;27.53;;;;;;;-0.92;100.00;101066.55;1780719;78;21104;-78
2020/12/05 01:09:54;;;;;;;45.17;26.73;;;;;;;-0.93;100.00;101070.30;1760430;80;21432;-78
2020/12/05 01:12:24;;;;;;;46.23;27.10;;;;;;;-0.90;100.00;101067.91;1758130;80;21130;-78
2020/12/05 01:14:51;;;;;;;45.48;26.75;;;;;;;-0.90;100.00;101066.63;1760759;80;21537;-78
2020/12/05 01:17:25;;;;;;;40.60;23.83;;;;;;;-0.93;100.00;101058.87;1743323;81;21167;-79
2020/12/05 01:19:55;;;;;;;39.03;22.73;;;;;;;-0.96;100.00;101060.45;1773927;80;21027;-78
2020/12/05 01:22:23;;;;;;;;;;;;;;;-0.97;100.00;101065.06;1735614;81;21205;-79
2020/12/05 01:24:52;;;;;;;48.83;27.27;;;;;;;-1.00;100.00;101072.94;1765081;79;20180;-79
2020/12/05 01:27:20;;;;;;;40.53;23.00;;;;;;;-1.04;100.00;101062.17;1784474;79;21540;-79
2020/12/05 01:29:51;;;;;;;42.37;22.63;;;;;;;-1.09;100.00;101060.66;1795870;79;21140;-79
2020/12/05 01:32:19;;;;;;;52.73;29.43;;;;;;;-1.12;100.00;101060.91;1782242;79;21083;-79
2020/12/05 01:34:48;;;;;;;42.40;25.63;;;;;;;-1.11;100.00;101063.55;1734136;80;21367;-79
2020/12/05 01:37:16;;;;;;;46.60;25.83;;;;;;;-1.06;100.00;101061.21;1768526;79;21202;-78
2020/12/05 01:39:44;;;;;;;43.77;25.77;;;;;;;-1.02;100.00;101066.50;1775147;80;21089;-80
2020/12/05 01:42:12;;;;;;;41.40;21.63;;;;;;;-1.01;100.00;101071.20;1746907;80;21167;-78
2020/12/05 01:44:39;;;;;;;49.43;27.90;;;;;;;-1.01;100.00;101073.75;1734021;80;21126;-78
2020/12/05 01:47:07;;;;;;;40.43;22.57;;;;;;;-1.01;100.00;101065.72;1779099;79;21128;-78
2020/12/05 01:49:35;;;;;;;45.40;27.80;;;;;;;-1.03;100.00;101062.63;1736475;80;21602;-78
2020/12/05 01:52:02;;;;;;;54.43;29.17;;;;;;;-1.01;100.00;101062.31;1788490;80;21071;-78
2020/12/05 01:54:30;;;;;;;44.53;24.77;;;;;;;-0.99;100.00;101067.05;1800356;79;21077;-78
2020/12/05 01:57:03;;;;;;;43.00;23.42;;;;;;;-0.99;100.00;101077.21;1783577;77;21124;-78
2020/12/05 01:59:31;;;;;;;55.10;30.90;;;;;;;-0.96;100.00;101071.02;1803004;79;21209;-79
2020/12/05 02:02:04;;;;;;;39.83;24.83;;;;;;;-0.96;100.00;101070.61;1767402;79;21123;-77
2020/12/05 02:04:44;;;;;;;36.23;20.87;;;;;;;-0.93;100.00;101063.95;1770945;79;21139;-79
2020/12/05 02:07:53;;;;;;;40.40;22.05;;;;;;;-0.92;100.00;101032.25;1769573;80;21132;-79
2020/12/05 02:10:30;;;;;;;44.27;27.07;;;;;;;-0.92;100.00;101058.92;1755426;79;21151;-78
2020/12/05 02:13:02;;;;;;;45.90;23.23;;;;;;;-0.90;100.00;101059.02;1790392;78;22095;-79
2020/12/05 02:15:31;;;;;;;41.47;24.53;;;;;;;-0.89;100.00;101065.42;1757021;80;21112;-79
2020/12/05 02:18:06;;;;;;;48.60;27.40;;;;;;;-0.89;100.00;101066.69;1743223;79;21076;-79
2020/12/05 02:20:37;;;;;;;38.57;21.37;;;;;;;-0.88;100.00;101062.11;1789241;79;21129;-79
2020/12/05 02:23:08;;;;;;;;;;;;;;;-0.89;100.00;101067.96;1788295;79;21040;-79
2020/12/05 02:25:36;;;;;;;47.38;24.18;;;;;;;-0.86;100.00;101071.92;1802329;79;21407;-80
2020/12/05 02:28:06;;;;;;;46.50;24.63;;;;;;;-0.86;100.00;101074.86;1741445;80;21060;-79
2020/12/05 02:30:34;;;;;;;52.13;27.42;;;;;;;-0.86;100.00;101082.08;1765305;80;21100;-80
2020/12/05 02:33:03;;;;;;;57.03;34.07;;;;;;;-0.85;100.00;101079.14;1772842;80;21111;-79
2020/12/05 02:35:32;;;;;;;27.03;15.63;;;;;;;-0.81;100.00;101081.05;1797166;78;21034;-79
2020/12/05 02:38:26;;;;;;;50.40;27.77;;;;;;;-0.79;100.00;101076.89;1755529;80;21188;-79
2020/12/05 02:40:55;;;;;;;52.73;31.63;;;;;;;-0.80;100.00;101077.30;1747261;79;21056;-79
2020/12/05 02:43:24;;;;;;;48.37;30.63;;;;;;;-0.82;100.00;101078.91;1726610;78;21109;-76
2020/12/05 02:45:53;;;;;;;44.37;27.53;;;;;;;-0.81;100.00;101074.70;1806771;78;21108;-79
2020/12/05 02:48:21;;;;;;;45.50;23.37;;;;;;;-0.82;100.00;101085.27;1811963;78;21076;-79
2020/12/05 02:50:49;;;;;;;43.70;24.80;;;;;;;-0.81;100.00;101078.51;1773743;79;21199;-79
2020/12/05 02:53:17;;;;;;;54.03;32.40;;;;;;;-0.82;100.00;101077.64;1775342;80;21181;-80
2020/12/05 02:55:45;;;;;;;49.97;25.87;;;;;;;-0.80;100.00;101086.19;1798685;78;21113;-79
2020/12/05 02:58:14;;;;;;;49.67;24.43;;;;;;;-0.76;100.00;101088.06;1769199;80;21029;-80
2020/12/05 03:00:43;;;;;;;41.40;21.93;;;;;;;-0.75;100.00;101087.30;1772900;80;21109;-79
2020/12/05 03:03:12;;;;;;;50.25;27.30;;;;;;;-0.71;100.00;101085.77;1738234;81;21177;-79
2020/12/05 03:05:40;;;;;;;37.20;21.40;;;;;;;-0.72;100.00;101086.55;1763729;80;21130;-79
2020/12/05 03:08:09;;;;;;;47.03;28.00;;;;;;;-0.74;100.00;101088.16;1736556;81;21184;-79
2020/12/05 03:10:37;;;;;;;48.30;26.33;;;;;;;-0.74;100.00;101085.21;1761609;80;21807;-79
2020/12/05 03:13:05;;;;;;;39.57;22.67;;;;;;;-0.74;100.00;101080.13;1745123;81;21077;-78
2020/12/05 03:15:33;;;;;;;42.33;26.53;;;;;;;-0.72;100.00;101068.38;1764915;81;21289;-78
2020/12/05 03:18:01;;;;;;;34.40;18.03;;;;;;;-0.75;100.00;101075.86;1765764;78;21107;-78
2020/12/05 03:20:28;;;;;;;36.03;20.23;;;;;;;-0.78;100.00;101070.63;1775259;80;21117;-79
2020/12/05 03:22:57;;;;;;;43.70;27.13;;;;;;;-0.81;100.00;101077.23;1796151;78;21123;-77
2020/12/05 03:25:25;;;;;;;44.60;26.43;;;;;;;-0.77;100.00;101081.66;1796418;78;21149;-78
2020/12/05 03:27:53;;;;;;;34.87;18.63;;;;;;;-0.80;100.00;101086.59;1810128;78;21172;-78
2020/12/05 03:30:20;;;;;;;38.77;21.00;;;;;;;-0.83;100.00;101081.36;1800342;78;21116;-77
2020/12/05 03:32:49;;;;;;;40.77;23.20;;;;;;;-0.88;100.00;101096.40;1778116;79;21116;-78
2020/12/05 03:35:16;;;;;;;40.83;23.80;;;;;;;-0.86;100.00;101080.81;1776954;79;21185;-77
2020/12/05 03:37:44;;;;;;;47.97;26.80;;;;;;;-0.84;100.00;101079.63;1771201;79;21061;-79
2020/12/05 03:40:12;;;;;;;43.87;23.97;;;;;;;-0.81;100.00;101081.05;1755178;80;21205;-77
2020/12/05 03:42:40;;;;;;;43.23;26.17;;;;;;;-0.80;100.00;101084.92;1776423;79;21128;-77
2020/12/05 03:45:08;;;;;;;47.20;26.17;;;;;;;-0.82;100.00;101083.09;1779455;79;21144;-76
2020/12/05 03:47:37;;;;;;;32.87;18.07;;;;;;;-0.86;100.00;101077.41;1781079;79;21211;-76
2020/12/05 03:50:06;;;;;;;55.03;31.30;;;;;;;-0.88;100.00;101077.34;1804969;79;21019;-78
2020/12/05 03:52:34;;;;;;;37.67;22.13;;;;;;;-0.84;100.00;101088.52;1792318;79;21357;-78
2020/12/05 03:55:02;;;;;;;47.47;27.93;;;;;;;-0.85;100.00;101090.20;1756880;81;21116;-77
2020/12/05 03:57:31;;;;;;;37.03;21.93;;;;;;;-0.82;100.00;101084.37;1779679;79;21147;-77
2020/12/05 03:59:59;;;;;;;43.57;21.73;;;;;;;-0.81;100.00;101088.67;1795878;77;21146;-79
2020/12/05 04:02:28;;;;;;;44.13;25.17;;;;;;;-0.83;100.00;101085.17;1788619;79;21319;-77
2020/12/05 04:04:56;;;;;;;42.30;23.63;;;;;;;-0.83;100.00;101091.52;1788704;79;21442;-77
2020/12/05 04:07:26;;;;;;;43.37;24.67;;;;;;;-0.86;100.00;101095.19;1809012;77;21361;-77
2020/12/05 04:09:55;;;;;;;48.50;27.13;;;;;;;-0.85;100.00;101094.37;1787894;79;21059;-77
2020/12/05 04:12:29;;;;;;;49.33;28.83;;;;;;;-0.84;100.00;101102.50;1753521;80;21108;-75
2020/12/05 04:14:57;;;;;;;52.17;28.77;;;;;;;-0.82;100.00;101101.78;1770092;79;21095;-76
2020/12/05 04:17:26;;;;;;;48.60;26.20;;;;;;;-0.80;100.00;101100.56;1775942;79;21188;-75
2020/12/05 04:19:55;;;;;;;41.87;23.07;;;;;;;-0.79;100.00;101098.48;1778049;79;21029;-77
2020/12/05 04:22:23;;;;;;;40.70;23.87;;;;;;;-0.81;100.00;101104.78;1786561;79;21007;-78
2020/12/05 04:24:52;;;;;;;47.03;26.53;;;;;;;-0.82;100.00;101098.34;1760124;79;21123;-78
2020/12/05 04:27:20;;;;;;;49.00;27.33;;;;;;;-0.84;100.00;101107.58;1804458;79;21157;-77
2020/12/05 04:29:51;;;;;;;42.00;23.10;;;;;;;-0.82;100.00;101111.94;1749511;81;21196;-79
2020/12/05 04:32:19;;;;;;;58.47;31.87;;;;;;;-0.82;100.00;101100.51;1758332;79;21092;-78
2020/12/05 04:34:48;;;;;;;50.03;29.20;;;;;;;-0.80;100.00;101100.56;1803797;79;21089;-79
2020/12/05 04:37:16;;;;;;;43.13;26.00;;;;;;;-0.79;100.00;101103.56;1749054;80;21083;-78
2020/12/05 04:39:45;;;;;;;49.40;28.13;;;;;;;-0.76;100.00;101100.77;1757841;78;21091;-79
2020/12/05 04:42:16;;;;;;;35.80;18.42;;;;;;;-0.77;100.00;101090.55;1785081;78;21179;-79
2020/12/05 04:44:44;;;;;;;43.00;23.07;;;;;;;-0.78;100.00;101100.25;1807379;78;21107;-80
2020/12/05 04:47:13;;;;;;;45.97;19.13;;;;;;;-0.80;100.00;101100.16;1740262;80;21030;-78
2020/12/05 04:49:40;;;;;;;37.77;21.37;;;;;;;-0.88;100.00;101096.77;1750947;81;21100;-77
2020/12/05 04:55:05;;;;;;;49.87;24.67;;;;;;;-0.95;100.00;101099.41;1613836;87;21400;-78
2020/12/05 04:57:48;;;;;;;39.17;23.20;;;;;;;-0.95;100.00;101096.50;1655896;83;21827;-77
2020/12/05 05:00:17;;;;;;;50.93;28.70;;;;;;;-0.89;100.00;101096.31;1644446;86;21080;-78
2020/12/05 05:02:45;;;;;;;33.37;21.40;;;;;;;-0.88;100.00;101097.67;1659793;85;21126;-77
2020/12/05 05:05:14;;;;;;;49.50;28.40;;;;;;;-0.92;100.00;101099.56;1666551;85;21116;-77
2020/12/05 05:07:52;;;;;;;46.27;24.50;;;;;;;-0.95;100.00;101101.58;1664910;85;21227;-78
2020/12/05 05:10:31;;;;;;;40.53;21.23;;;;;;;-0.96;100.00;101109.11;1667751;85;21221;-78
2020/12/05 05:15:58;;;;;;;49.43;26.53;;;;;;;-0.84;100.00;101113.92;1825536;76;25005;-77
2020/12/05 05:18:26;;;;;;;42.60;23.53;;;;;;;-0.89;100.00;101122.98;1796201;78;20988;-77
2020/12/05 05:20:54;;;;;;;35.97;20.57;;;;;;;-0.94;100.00;101111.34;1806088;78;21357;-80
2020/12/05 05:23:22;;;;;;;48.53;26.70;;;;;;;-0.94;100.00;101118.95;1780269;77;21014;-79
2020/12/05 05:25:59;;;;;;;41.67;21.67;;;;;;;-0.95;100.00;101118.46;1773463;80;21146;-78
2020/12/05 05:28:33;;;;;;;41.80;23.60;;;;;;;-0.98;100.00;101127.23;1758678;79;21050;-78
2020/12/05 05:33:55;;;;;;;45.17;25.23;;;;;;;-0.91;100.00;101130.54;1800639;77;23973;-76
2020/12/05 05:36:30;;;;;;;39.40;21.40;;;;;;;-0.95;100.00;101134.97;1759375;80;21023;-77
2020/12/05 05:39:08;;;;;;;39.57;21.10;;;;;;;-0.98;100.00;101133.18;1746148;80;22184;-77
2020/12/05 05:41:37;;;;;;;39.00;21.90;;;;;;;-1.02;100.00;101123.64;1729019;81;21089;-78
2020/12/05 05:44:14;;;;;;;38.70;22.73;;;;;;;-1.03;100.00;101120.64;1766744;79;21269;-78
2020/12/05 05:46:46;;;;;;;39.97;23.53;;;;;;;-1.04;100.00;101118.91;1760507;80;21135;-77
2020/12/05 05:49:19;;;;;;;29.00;16.47;;;;;;;-1.04;100.00;101117.63;1767473;80;21406;-77
2020/12/05 05:51:48;;;;;;;37.50;19.87;;;;;;;-1.04;100.00;101139.22;1769648;80;21771;-78
2020/12/05 05:54:25;;;;;;;39.63;20.13;;;;;;;-1.05;100.00;101126.03;1751634;79;21526;-77
2020/12/05 05:57:05;;;;;;;44.73;25.87;;;;;;;-1.10;100.00;101142.72;1773443;80;21104;-76
2020/12/05 05:59:39;;;;;;;40.65;22.77;;;;;;;-1.08;100.00;101128.45;1760443;76;21041;-79
2020/12/05 06:02:11;;;;;;;38.37;21.77;;;;;;;-1.05;100.00;101139.13;1763708;81;21172;-77
2020/12/05 06:04:42;;;;;;;38.60;22.55;;;;;;;-1.07;100.00;101127.64;1759596;80;21659;-76
2020/12/05 06:07:16;;;;;;;35.10;20.00;;;;;;;-1.06;100.00;101133.19;1751789;81;21140;-77
2020/12/05 06:09:55;;;;;;;28.67;16.70;;;;;;;-1.02;100.00;101122.77;1738685;80;21178;-77
2020/12/05 06:12:35;;;;;;;33.33;20.80;;;;;;;-1.06;100.00;101124.70;1737045;79;21136;-77
2020/12/05 06:15:02;;;;;;;46.47;23.63;;;;;;;-1.04;100.00;101134.55;1738405;81;21096;-78
2020/12/05 06:17:30;;;;;;;35.97;21.03;;;;;;;-1.06;100.00;101133.19;1738501;81;21805;-77
2020/12/05 06:19:58;;;;;;;36.80;19.63;;;;;;;-1.04;100.00;101130.73;1783365;78;21074;-77
2020/12/05 06:22:53;;;;;;;37.97;22.50;;;;;;;-1.06;100.00;101145.02;1773714;76;21057;-78
2020/12/05 06:25:21;;;;;;;34.13;17.67;;;;;;;-1.08;100.00;101145.32;1774463;79;21136;-79
2020/12/05 06:27:59;;;;;;;50.83;28.53;;;;;;;-1.09;100.00;101147.00;1758619;80;21133;-78
2020/12/05 06:30:27;;;;;;;36.93;19.47;;;;;;;-1.02;100.00;101148.17;1701506;80;21202;-78
2020/12/05 06:32:56;;;;;;;42.63;21.33;;;;;;;-0.99;100.00;101157.21;1752495;81;21177;-77
2020/12/05 06:35:32;;;;;;;41.50;24.23;;;;;;;-0.99;100.00;101158.48;1795759;79;21455;-77
2020/12/05 06:38:01;;;;;;;32.73;17.47;;;;;;;-1.01;100.00;101153.75;1762507;80;21146;-77
2020/12/05 06:40:30;;;;;;;47.07;25.43;;;;;;;-1.00;100.00;101158.89;1783304;79;21136;-77
2020/12/05 06:42:58;;;;;;;33.75;18.67;;;;;;;-1.02;100.00;101163.00;1760831;79;21230;-77
2020/12/05 06:45:32;;;;;;;45.27;25.23;;;;;;;-1.06;100.00;101150.95;1814207;79;20907;-78
2020/12/05 06:48:14;;;;;;;43.43;25.00;;;;;;;-1.03;100.00;101163.81;1799522;77;21089;-78
2020/12/05 06:50:45;;;;;;;48.03;25.00;;;;;;;-0.97;100.00;101160.72;1795463;79;21105;-78
2020/12/05 06:53:26;;;;;;;38.03;21.97;;;;;;;-0.97;100.00;101161.98;1817850;77;21038;-77
2020/12/05 06:55:56;;;;;;;41.60;24.40;;;;;;;-1.01;100.00;101158.42;1791333;79;21046;-77
2020/12/05 06:58:29;;;;;;;43.90;23.73;;;;;;;-1.02;100.00;101165.55;1765314;80;21113;-76
2020/12/05 07:00:58;;;;;;;41.13;24.30;;;;;;;-1.00;100.00;101175.39;1777734;79;21046;-78
2020/12/05 07:03:31;;;;;;;45.37;25.17;;;;;;;-1.00;100.00;101169.45;1769056;79;21014;-79
2020/12/05 07:06:01;;;;;;;41.57;23.20;;;;;;;-0.98;100.00;101177.62;1808163;79;21286;-77
2020/12/05 07:11:23;;;;;;;43.83;24.03;;;;;;;-0.92;100.00;101177.44;1800312;77;22718;-78
2020/12/05 07:13:52;;;;;;;44.20;25.30;;;;;;;-0.96;100.00;101181.09;1826717;77;21054;-78
2020/12/05 07:16:25;;;;;;;47.30;25.07;;;;;;;-0.96;100.00;101182.36;1824772;78;21198;-78
2020/12/05 07:19:00;;;;;;;53.27;27.97;;;;;;;-0.96;100.00;101174.74;1804446;77;21056;-78
2020/12/05 07:21:29;;;;;;;40.63;24.27;;;;;;;-0.93;100.00;101188.41;1788115;80;20997;-79
2020/12/05 07:23:59;;;;;;;39.10;19.23;;;;;;;-0.95;100.00;101194.29;1733239;81;21057;-77
2020/12/05 07:26:28;;;;;;;47.40;21.40;;;;;;;-1.00;100.00;101191.91;1760864;79;21046;-80
2020/12/05 07:28:56;;;;;;;43.87;25.60;;;;;;;-1.00;100.00;101202.06;1771373;80;21393;-80
2020/12/05 07:31:25;;;;;;;45.47;23.93;;;;;;;-1.00;100.00;101194.84;1780788;78;20943;-79
2020/12/05 07:33:56;;;;;;;47.00;24.70;;;;;;;-0.99;100.00;101201.25;1756785;79;21144;-79
2020/12/05 07:36:27;;;;;;;;;;;;;;;-0.93;100.00;101198.16;1745978;81;21542;-79
2020/12/05 07:38:56;;;;;;;37.57;21.33;;;;;;;-0.89;100.00;101206.80;1744299;78;20187;-79
2020/12/05 07:41:33;;;;;;;44.97;25.03;;;;;;;-0.88;100.00;101204.36;1685910;79;21205;-79
2020/12/05 07:44:02;;;;;;;40.97;22.53;;;;;;;-0.86;100.00;101205.28;1690101;83;21204;-80
2020/12/05 07:46:31;;;;;;;34.97;20.43;;;;;;;-0.87;100.00;101211.58;1664704;83;21097;-78
2020/12/05 07:49:01;;;;;;;41.68;22.85;;;;;;;-0.86;100.00;101209.09;1677567;82;21101;-80
2020/12/05 07:51:31;;;;;;;33.48;18.17;;;;;;;-0.90;100.00;101207.61;1654883;84;21074;-78
2020/12/05 07:54:03;;;;;;;36.80;19.90;;;;;;;-0.95;100.00;101223.50;1696021;82;21605;-79
2020/12/05 07:56:31;;;;;;;38.47;21.30;;;;;;;-0.94;100.00;101220.56;1696296;81;21152;-78
2020/12/05 07:59:00;;;;;;;37.90;20.43;;;;;;;-0.96;100.00;101223.00;1693057;83;21542;-78
2020/12/05 08:02:00;;;;;;;32.70;20.03;;;;;;;-0.96;100.00;101220.46;1674325;83;21192;-78
2020/12/05 08:04:51;;;;;;;;;;;;;;;-0.96;100.00;101227.22;1694576;82;21364;-78
2020/12/05 08:07:42;;;;;;;36.33;19.13;;;;;;;-0.95;100.00;101229.85;1712095;80;21462;-78
2020/12/05 08:10:17;;;;;;;39.90;22.90;;;;;;;-0.93;100.00;101233.72;1676295;82;21138;-78
2020/12/05 08:13:24;;;;;;;47.43;25.23;;;;;;;-0.86;100.00;101241.25;1696155;81;21114;-78
2020/12/05 08:16:06;;;;;;;37.53;21.97;;;;;;;-0.85;100.00;101235.00;1682003;83;21059;-80
2020/12/05 08:18:37;;;;;;;37.63;17.63;;;;;;;-0.82;100.00;101246.59;1678199;81;21001;-81
2020/12/05 08:21:07;;;;;;;42.78;22.70;;;;;;;-0.86;100.00;101243.39;1688399;81;21207;-79
2020/12/05 08:23:40;;;;;;;38.50;21.20;;;;;;;-0.91;100.00;101239.77;1712503;81;21187;-77
2020/12/05 08:26:28;;;;;;;39.70;22.27;;;;;;;-0.86;100.00;101243.80;1732721;79;21089;31
2020/12/05 08:29:07;;;;;;;42.83;24.53;;;;;;;-0.81;100.00;101238.56;1699109;78;23618;-79
2020/12/05 08:43:26;;;;;;;39.23;20.10;;;;;;;-0.70;100.00;101242.49;1774127;79;22709;-79
2020/12/05 08:47:08;;;;;;;44.50;26.90;;;;;;;-0.74;100.00;101246.55;1810275;77;23196;-80
2020/12/05 08:55:51;;;;;;;52.23;29.47;;;;;;;-0.80;100.00;101253.00;1672958;84;21031;-79
2020/12/05 08:58:19;;;;;;;39.30;22.93;;;;;;;-0.77;100.00;101251.48;1640503;86;21075;-77
2020/12/05 09:00:50;;;;;;;46.83;25.37;;;;;;;-0.73;100.00;101243.61;1663732;84;21045;-78
2020/12/05 09:03:30;;;;;;;44.37;25.30;;;;;;;-0.72;100.00;101244.08;1670084;84;21196;-79
2020/12/05 09:06:00;;;;;;;48.40;27.60;;;;;;;-0.74;100.00;101251.64;1668138;84;21291;-78
2020/12/05 09:08:28;;;;;;;43.40;23.23;;;;;;;-0.76;100.00;101258.30;1656055;85;21268;-78
2020/12/05 09:10:57;;;;;;;48.00;25.60;;;;;;;-0.80;100.00;101254.27;1649264;85;21066;-78
2020/12/05 09:13:26;;;;;;;60.27;26.90;;;;;;;-0.82;100.00;101254.20;1649135;84;21101;-79
2020/12/05 09:16:00;;;;;;;39.88;19.50;;;;;;;-0.80;100.00;101244.11;1651662;86;21182;-77
2020/12/05 09:30:22;;;;;;;58.77;29.33;;;;;;;-0.74;100.00;101234.25;1815911;77;24949;-78
2020/12/05 09:47:04;;;;;;;58.13;26.30;;;;;;;-0.85;100.00;101237.54;1679032;78;22903;-79
2020/12/05 10:11:11;;;;;;;46.63;26.53;;;;;;;-0.87;100.00;101226.41;1711210;78;22885;-78
2020/12/05 10:32:50;;;;;;;45.35;30.82;;;;;;;-0.90;100.00;101240.63;1719804;80;28629;-82
2020/12/05 10:36:04;;;;;;;40.77;25.50;;;;;;;-0.85;100.00;101249.34;1762853;74;26445;-81
2020/12/05 10:38:35;;;;;;;52.40;28.90;;;;;;;-0.96;100.00;101244.59;1703674;83;21376;-80
2020/12/05 10:41:53;;;;;;;38.60;21.47;;;;;;;-0.95;100.00;101255.25;1733443;78;21042;31
2020/12/05 10:44:22;;;;;;;38.37;23.97;;;;;;;-0.99;100.00;101243.16;1707198;80;21140;-78
2020/12/05 10:46:54;;;;;;;38.40;23.17;;;;;;;-0.95;100.00;101259.06;1701643;82;21102;-76
2020/12/05 10:49:23;;;;;;;47.73;27.50;;;;;;;-0.98;100.00;101245.33;1670357;82;21134;-75
2020/12/05 10:51:51;;;;;;;49.67;27.17;;;;;;;-1.01;100.00;101240.96;1650248;83;21148;-75
2020/12/05 10:54:18;;;;;;;47.60;24.73;;;;;;;-1.00;100.00;101239.30;1663006;84;21359;-75
2020/12/05 10:56:46;;;;;;;48.63;28.33;;;;;;;-1.03;100.00;101248.02;1729014;81;21207;-75
2020/12/05 10:59:14;;;;;;;42.43;24.23;;;;;;;-1.04;100.00;101250.09;1728604;82;21072;-73
2020/12/05 11:01:42;;;;;;;43.93;24.57;;;;;;;-1.05;100.00;101253.41;1746088;81;21155;-75
2020/12/05 11:04:09;;;;;;;43.93;24.17;;;;;;;-1.03;100.00;101255.23;1703976;81;21148;-75
2020/12/05 11:06:37;;;;;;;40.83;25.50;;;;;;;-1.07;100.00;101256.28;1731196;82;21757;-74
2020/12/05 11:09:04;;;;;;;50.40;29.57;;;;;;;-1.03;100.00;101259.45;1695162;82;21175;-76
2020/12/05 11:11:32;;;;;;;49.60;29.47;;;;;;;-1.01;100.00;101258.74;1717507;80;21187;-74
2020/12/05 11:14:01;;;;;;;32.57;19.70;;;;;;;-1.01;100.00;101256.20;1705844;81;21213;-74
2020/12/05 11:16:29;;;;;;;45.13;27.77;;;;;;;-0.95;100.00;101260.33;1733970;81;21279;-75
2020/12/05 11:18:56;;;;;;;42.50;26.17;;;;;;;-0.92;100.00;101261.27;1731330;80;21312;-74
2020/12/05 11:21:24;;;;;;;49.80;27.30;;;;;;;-0.89;100.00;101255.94;1730518;80;21049;-74
2020/12/05 11:23:52;;;;;;;40.07;23.53;;;;;;;-0.87;100.00;101259.84;1709102;83;21121;-75
2020/12/05 11:26:21;;;;;;;54.20;33.20;;;;;;;-0.89;100.00;101261.42;1710029;82;21149;-74
2020/12/05 11:28:50;;;;;;;49.37;29.77;;;;;;;-0.91;100.00;101266.84;1693842;83;21170;-75
2020/12/05 11:31:17;;;;;;;45.87;27.23;;;;;;;-0.91;100.00;101266.84;1733101;81;21881;-75
2020/12/05 11:33:48;;;;;;;41.68;23.20;;;;;;;-1.00;100.00;101269.37;1695608;82;26198;-75
2020/12/05 11:36:16;;;;;;;45.90;26.60;;;;;;;-1.03;100.00;101279.37;1672242;83;21184;-75
2020/12/05 11:38:44;;;;;;;53.03;30.07;;;;;;;-1.03;100.00;101275.55;1734775;82;21127;-75
2020/12/05 11:41:11;;;;;;;55.50;30.93;;;;;;;-1.02;100.00;101281.09;1739479;81;21148;-75
2020/12/05 11:43:39;;;;;;;51.90;28.40;;;;;;;-1.03;100.00;101286.98;1669589;84;21248;-75
2020/12/05 11:46:07;;;;;;;48.30;26.93;;;;;;;-1.05;100.00;101278.80;1675072;83;21247;-74
2020/12/05 11:48:35;;;;;;;50.27;24.20;;;;;;;-1.09;100.00;101287.94;1717796;82;21079;-75
2020/12/05 11:51:02;;;;;;;45.50;26.23;;;;;;;-1.14;100.00;101290.64;1720794;81;21120;-74
2020/12/05 11:53:29;;;;;;;42.47;24.03;;;;;;;-1.21;100.00;101297.44;1739042;80;21108;-73
2020/12/05 11:55:57;;;;;;;45.47;26.90;;;;;;;-1.23;100.00;101299.05;1752561;80;21978;-75
2020/12/05 11:58:24;;;;;;;49.37;26.00;;;;;;;-1.23;100.00;101293.56;1731891;82;21596;-73
2020/12/05 12:00:53;;;;;;;44.73;25.67;;;;;;;-1.23;100.00;101288.48;1731980;81;21158;-75
2020/12/05 12:03:21;;;;;;;44.03;27.33;;;;;;;-1.23;100.00;101292.70;1748613;80;21061;-75
2020/12/05 12:05:48;;;;;;;54.83;30.90;;;;;;;-1.19;100.00;101292.06;1735052;80;21107;-75
2020/12/05 12:08:16;;;;;;;48.87;28.17;;;;;;;-1.20;100.00;101297.53;1732548;81;21426;-74
2020/12/05 12:10:43;;;;;;;44.10;27.00;;;;;;;-1.19;100.00;101298.41;1695564;83;21136;-74
2020/12/05 12:13:11;;;;;;;52.70;28.83;;;;;;;-1.21;100.00;101300.88;1725679;81;21136;-74
2020/12/05 12:15:39;;;;;;;49.33;25.43;;;;;;;-1.22;100.00;101305.86;1725065;82;21144;-74
2020/12/05 12:18:06;;;;;;;46.67;28.47;;;;;;;-1.26;100.00;101300.15;1685123;83;21652;-74
2020/12/05 12:20:35;;;;;;;54.90;31.83;;;;;;;-1.23;100.00;101302.85;1722998;82;21818;-74
2020/12/05 12:23:03;;;;;;;42.47;24.27;;;;;;;-1.27;100.00;101305.63;1672460;84;21081;-76
2020/12/05 12:25:30;;;;;;;48.67;25.97;;;;;;;-1.34;100.00;101305.20;1731298;81;21156;-74
2020/12/05 12:27:59;;;;;;;42.63;25.00;;;;;;;-1.42;100.00;101307.34;1683601;83;21114;-73
2020/12/05 12:30:26;;;;;;;36.33;21.77;;;;;;;-1.45;100.00;101317.33;1679811;84;21114;-76
2020/12/05 12:32:54;;;;;;;43.23;25.23;;;;;;;-1.45;100.00;101313.11;1685762;83;21629;-76
2020/12/05 12:35:21;;;;;;;49.60;28.90;;;;;;;-1.46;100.00;101311.37;1690740;83;21119;-74
2020/12/05 12:37:50;;;;;;;47.13;28.07;;;;;;;-1.42;100.00;101309.88;1721430;82;21212;-75
2020/12/05 12:40:17;;;;;;;46.80;26.17;;;;;;;-1.44;100.00;101313.98;1691801;83;21242;-74
2020/12/05 12:42:45;;;;;;;40.50;24.13;;;;;;;-1.39;100.00;101320.59;1663504;84;21129;-75
2020/12/05 12:45:15;;;;;;;36.37;23.30;;;;;;;-1.39;100.00;101318.05;1684075;83;21384;-75
2020/12/05 12:47:59;;;;;;;40.00;24.43;;;;;;;-1.40;100.00;101316.32;1687954;82;21073;-75
2020/12/05 12:50:15;;;;;;;41.57;23.67;;;;;;;-1.42;100.00;101324.70;1638080;84;21144;-75
2020/12/05 12:52:43;;;;;;;46.57;29.40;;;;;;;-1.40;100.00;101317.19;1673757;83;21259;-74
2020/12/05 12:55:10;;;;;;;44.43;24.80;;;;;;;-1.38;100.00;101309.23;1665604;83;21204;-76